Time,TemperatureF,DewpointF,PressureIn,WindDirection,WindDirectionDegrees,WindSpeedMPH,WindSpeedGustMPH,Humidity,HourlyPrecipIn,Conditions,Clouds,dailyrainin,SolarRadiationWatts/m^2,SoftwareType,DateUTC
2013-05-14 00:02:00,57.0,37.0,-100.00,SE,142,5.0,9.0,47,0.00,,,0.02,0.000000,,2013-05-14 05:02:00,
2013-05-14 00:32:00,58.0,39.0,-100.00,SSE,157,3.0,10.0,49,0.00,,,0.02,0.000000,,2013-05-14 05:32:00,
2013-05-14 00:42:00,58.0,39.0,-100.00,SSE,157,3.0,10.0,49,0.00,,,0.02,0.000000,,2013-05-14 05:42:00,
2013-05-14 00:52:00,58.0,39.0,-100.00,SSE,157,3.0,10.0,49,0.00,,,0.02,0.000000,,2013-05-14 05:52:00,
2013-05-14 01:01:00,58.0,39.0,-100.00,SSE,157,3.0,10.0,49,0.00,,,0.02,0.000000,,2013-05-14 06:01:00,
2013-05-14 01:32:00,50.0,36.0,-100.00,North,9,3.0,5.0,59,0.00,,,0.02,0.000000,,2013-05-14 06:32:00,
2013-05-14 01:42:00,50.0,36.0,-100.00,North,9,3.0,5.0,59,0.00,,,0.02,0.000000,,2013-05-14 06:42:00,
2013-05-14 01:52:00,50.0,36.0,-100.00,North,9,3.0,5.0,59,0.00,,,0.02,0.000000,,2013-05-14 06:52:00,
2013-05-14 02:02:00,50.0,36.0,-100.00,North,9,3.0,5.0,59,0.00,,,0.02,0.000000,,2013-05-14 07:02:00,
2013-05-14 02:32:00,45.0,37.0,-100.00,SE,145,1.0,6.0,74,0.00,,,0.02,0.000000,,2013-05-14 07:32:00,
2013-05-14 02:42:00,45.0,37.0,-100.00,SE,145,1.0,6.0,74,0.00,,,0.02,0.000000,,2013-05-14 07:42:00,
2013-05-14 02:52:00,45.0,37.0,-100.00,SE,145,1.0,6.0,74,0.00,,,0.02,0.000000,,2013-05-14 07:52:00,
2013-05-14 03:02:00,45.0,37.0,-100.00,SE,145,1.0,6.0,74,0.00,,,0.02,0.000000,,2013-05-14 08:02:00,
2013-05-14 03:32:00,42.0,37.0,-100.00,WSW,251,1.0,3.0,83,0.00,,,0.02,0.000000,,2013-05-14 08:32:00,
2013-05-14 03:42:00,42.0,37.0,-100.00,WSW,251,1.0,3.0,83,0.00,,,0.02,0.000000,,2013-05-14 08:42:00,
2013-05-14 03:52:00,42.0,37.0,-100.00,WSW,251,1.0,3.0,83,0.00,,,0.02,0.000000,,2013-05-14 08:52:00,
2013-05-14 04:02:00,42.0,37.0,-100.00,WSW,251,1.0,3.0,83,0.00,,,0.02,0.000000,,2013-05-14 09:02:00,
2013-05-14 04:33:00,40.0,35.0,-100.00,West,262,1.0,3.0,83,0.00,,,0.02,0.000000,,2013-05-14 09:33:00,
2013-05-14 04:44:00,40.0,35.0,-100.00,West,262,1.0,3.0,83,0.00,,,0.02,0.000000,,2013-05-14 09:44:00,
2013-05-14 04:54:00,40.0,35.0,-100.00,West,262,1.0,3.0,83,0.00,,,0.02,0.000000,,2013-05-14 09:54:00,
2013-05-14 05:04:00,40.0,35.0,-100.00,West,262,1.0,3.0,83,0.00,,,0.02,0.000000,,2013-05-14 10:04:00,
2013-05-14 05:33:00,37.0,33.0,-100.00,NE,52,2.0,4.0,84,0.00,,,0.02,0.000000,,2013-05-14 10:33:00,
2013-05-14 05:42:00,37.0,33.0,-100.00,NE,52,2.0,4.0,84,0.00,,,0.02,0.000000,,2013-05-14 10:42:00,
2013-05-14 05:52:00,37.0,33.0,-100.00,NE,52,2.0,4.0,84,0.00,,,0.02,0.000000,,2013-05-14 10:52:00,
2013-05-14 06:02:00,37.0,33.0,-100.00,NE,52,2.0,4.0,84,0.00,,,0.02,0.000000,,2013-05-14 11:02:00,
2013-05-14 06:32:00,37.0,34.0,-100.00,SSW,192,2.0,3.0,90,0.00,,,0.02,4.000000,,2013-05-14 11:32:00,
2013-05-14 06:43:00,37.0,34.0,-100.00,SSW,192,2.0,3.0,90,0.00,,,0.02,4.000000,,2013-05-14 11:43:00,
2013-05-14 06:53:00,37.0,34.0,-100.00,SSW,192,2.0,3.0,90,0.00,,,0.02,4.000000,,2013-05-14 11:53:00,
2013-05-14 07:02:00,37.0,34.0,-100.00,SSW,192,2.0,3.0,90,0.00,,,0.02,4.000000,,2013-05-14 12:02:00,
2013-05-14 07:32:00,48.0,44.0,-100.00,ESE,102,2.0,5.0,86,0.00,,,0.02,75.000000,,2013-05-14 12:32:00,
2013-05-14 07:42:00,48.0,44.0,-100.00,ESE,102,2.0,5.0,86,0.00,,,0.02,75.000000,,2013-05-14 12:42:00,
2013-05-14 07:52:00,48.0,44.0,-100.00,ESE,102,2.0,5.0,86,0.00,,,0.02,75.000000,,2013-05-14 12:52:00,
2013-05-14 08:01:00,48.0,44.0,-100.00,ESE,102,2.0,5.0,86,0.00,,,0.02,75.000000,,2013-05-14 13:01:00,
2013-05-14 09:32:00,66.0,46.0,-100.00,West,279,3.0,7.0,48,-99.99,,,0.02,297.000000,,2013-05-14 14:32:00,
2013-05-14 09:42:00,66.0,46.0,-100.00,West,279,3.0,7.0,48,-99.99,,,0.02,297.000000,,2013-05-14 14:42:00,
2013-05-14 09:52:00,66.0,46.0,-100.00,West,279,3.0,7.0,48,-99.99,,,0.02,297.000000,,2013-05-14 14:52:00,
2013-05-14 10:01:00,66.0,46.0,-100.00,West,279,3.0,7.0,48,-99.99,,,0.02,297.000000,,2013-05-14 15:01:00,
2013-05-14 10:33:00,63.0,44.0,-100.00,North,353,8.0,12.0,49,0.00,,,0.02,142.000000,,2013-05-14 15:33:00,
2013-05-14 10:43:00,63.0,44.0,-100.00,North,353,8.0,12.0,49,0.00,,,0.02,142.000000,,2013-05-14 15:43:00,
2013-05-14 10:53:00,63.0,44.0,-100.00,North,353,8.0,12.0,49,0.00,,,0.02,142.000000,,2013-05-14 15:53:00,
2013-05-14 11:02:00,63.0,44.0,-100.00,North,353,8.0,12.0,49,0.00,,,0.02,142.000000,,2013-05-14 16:02:00,
2013-05-14 11:33:00,63.0,50.0,-100.00,East,81,9.0,15.0,63,0.00,,,0.02,196.000000,,2013-05-14 16:33:00,
2013-05-14 11:44:00,63.0,50.0,-100.00,East,81,9.0,15.0,63,0.00,,,0.02,196.000000,,2013-05-14 16:44:00,
2013-05-14 11:54:00,63.0,50.0,-100.00,East,81,9.0,15.0,63,0.00,,,0.02,196.000000,,2013-05-14 16:54:00,
2013-05-14 12:03:00,63.0,50.0,-100.00,East,81,9.0,15.0,63,0.00,,,0.02,196.000000,,2013-05-14 17:03:00,
2013-05-14 12:33:00,72.0,49.0,-100.00,ESE,102,11.0,20.0,44,0.00,,,0.02,702.000000,,2013-05-14 17:33:00,
2013-05-14 13:02:00,72.0,49.0,-100.00,ESE,102,11.0,20.0,44,0.00,,,0.02,702.000000,,2013-05-14 18:02:00,
2013-05-14 13:32:00,82.0,47.0,-100.00,ESE,121,11.0,17.0,29,0.00,,,-99.99,828.000000,,2013-05-14 18:32:00,
2013-05-14 13:42:00,82.0,47.0,-100.00,ESE,121,11.0,17.0,29,0.00,,,-99.99,828.000000,,2013-05-14 18:42:00,
2013-05-14 13:52:00,82.0,47.0,-100.00,ESE,121,11.0,17.0,29,0.00,,,-99.99,828.000000,,2013-05-14 18:52:00,
2013-05-14 14:01:00,82.0,47.0,-100.00,ESE,121,11.0,17.0,29,0.00,,,-99.99,828.000000,,2013-05-14 19:01:00,
2013-05-14 14:32:00,86.0,44.0,-100.00,SSE,152,9.0,18.0,23,0.00,,,0.01,808.000000,,2013-05-14 19:32:00,
2013-05-14 14:42:00,86.0,44.0,-100.00,SSE,152,9.0,18.0,23,0.00,,,0.01,808.000000,,2013-05-14 19:42:00,
2013-05-14 14:53:00,86.0,44.0,-100.00,SSE,152,9.0,18.0,23,0.00,,,0.01,808.000000,,2013-05-14 19:53:00,
2013-05-14 15:02:00,86.0,44.0,-100.00,SSE,152,9.0,18.0,23,0.00,,,0.01,808.000000,,2013-05-14 20:02:00,
2013-05-14 15:33:00,88.0,43.0,-100.00,South,173,10.0,22.0,21,0.00,,,0.01,822.000000,,2013-05-14 20:33:00,
2013-05-14 15:44:00,88.0,43.0,-100.00,South,173,10.0,22.0,21,0.00,,,0.01,822.000000,,2013-05-14 20:44:00,
2013-05-14 15:52:00,88.0,43.0,-100.00,South,173,10.0,22.0,21,0.00,,,0.01,822.000000,,2013-05-14 20:52:00,
2013-05-14 16:03:00,88.0,43.0,-100.00,South,173,10.0,22.0,21,0.00,,,0.01,822.000000,,2013-05-14 21:03:00,
2013-05-14 17:34:00,92.0,45.0,-100.00,SW,215,9.0,18.0,20,-99.99,,,0.00,618.000000,,2013-05-14 22:34:00,
2013-05-14 17:45:00,92.0,45.0,-100.00,SW,215,9.0,18.0,20,-99.99,,,0.00,618.000000,,2013-05-14 22:45:00,
2013-05-14 17:54:00,92.0,45.0,-100.00,SW,215,9.0,18.0,20,-99.99,,,0.00,618.000000,,2013-05-14 22:54:00,
2013-05-14 18:03:00,92.0,45.0,-100.00,SW,215,9.0,18.0,20,-99.99,,,0.00,618.000000,,2013-05-14 23:03:00,
2013-05-14 18:32:00,93.0,47.0,-100.00,SW,216,8.0,18.0,21,0.00,,,0.00,430.000000,,2013-05-14 23:32:00,
2013-05-14 18:44:00,93.0,47.0,-100.00,SW,216,8.0,18.0,21,0.00,,,0.00,430.000000,,2013-05-14 23:44:00,
2013-05-14 18:53:00,93.0,47.0,-100.00,SW,216,8.0,18.0,21,0.00,,,0.00,430.000000,,2013-05-14 23:53:00,
2013-05-14 19:02:00,93.0,47.0,-100.00,SW,216,8.0,18.0,21,0.00,,,0.00,430.000000,,2013-05-15 00:02:00,
2013-05-14 20:32:00,83.0,29.0,-100.00,WNW,291,10.0,23.0,14,-99.99,,,0.00,109.000000,,2013-05-15 01:32:00,
2013-05-14 20:42:00,83.0,29.0,-100.00,WNW,291,10.0,23.0,14,-99.99,,,0.00,109.000000,,2013-05-15 01:42:00,
2013-05-14 20:52:00,83.0,29.0,-100.00,WNW,291,10.0,23.0,14,-99.99,,,0.00,109.000000,,2013-05-15 01:52:00,
2013-05-14 21:02:00,83.0,29.0,-100.00,WNW,291,10.0,23.0,14,-99.99,,,0.00,109.000000,,2013-05-15 02:02:00,
2013-05-14 21:32:00,77.0,29.0,-100.00,WNW,292,8.0,21.0,17,0.00,,,0.00,6.000000,,2013-05-15 02:32:00,
2013-05-14 21:42:00,77.0,29.0,-100.00,WNW,292,8.0,21.0,17,0.00,,,0.00,6.000000,,2013-05-15 02:42:00,
2013-05-14 21:52:00,77.0,29.0,-100.00,WNW,292,8.0,21.0,17,0.00,,,0.00,6.000000,,2013-05-15 02:52:00,
2013-05-14 22:01:00,77.0,29.0,-100.00,WNW,292,8.0,21.0,17,0.00,,,0.00,6.000000,,2013-05-15 03:01:00,
2013-05-14 22:33:00,72.0,32.0,-100.00,West,280,6.0,14.0,23,0.00,,,0.00,0.000000,,2013-05-15 03:33:00,
2013-05-14 22:44:00,72.0,32.0,-100.00,West,280,6.0,14.0,23,0.00,,,0.00,0.000000,,2013-05-15 03:44:00,
2013-05-14 22:54:00,72.0,32.0,-100.00,West,280,6.0,14.0,23,0.00,,,0.00,0.000000,,2013-05-15 03:54:00,
2013-05-14 23:03:00,72.0,32.0,-100.00,West,280,6.0,14.0,23,0.00,,,0.00,0.000000,,2013-05-15 04:03:00,
2013-05-14 23:33:00,70.0,40.0,-100.00,NW,308,7.0,22.0,33,0.00,,,0.00,0.000000,,2013-05-15 04:33:00,
2013-05-14 23:43:00,70.0,40.0,-100.00,NW,308,7.0,22.0,33,0.00,,,0.00,0.000000,,2013-05-15 04:43:00,
2013-05-14 23:52:00,70.0,40.0,-100.00,NW,308,7.0,22.0,33,0.00,,,0.00,0.000000,,2013-05-15 04:52:00,